Terminal Aerodrome Forecast
Issued by NWS Pueblo, CO

Home | Current Version | Previous Version | Text Only | Print | Product List | Glossary On
Versions: 1 2 3 4 5 6 7 8 9 10 11 12 13 14 15 16 17 18 19 20 21 22
000
FTUS45 KPUB 252325
TAFALS
TAF
KALS 252325Z 2600/2624 28011KT P6SM SCT080 BKN130
     FM260500 VRB06KT P6SM BKN080
     FM260800 VRB05KT P6SM VCSH SCT030 BKN050
     FM261200 VRB04KT P6SM SCT010 BKN060
     FM261600 26007KT P6SM BKN080
     FM262100 28013KT P6SM VCTS SCT060CB BKN100=

USA.gov is the U.S. government's official web portal to all federal, state and local government web resources and services.